createdAt,value
2023-05-13T00:00:52.771Z,11.00
2023-05-13T00:01:52.672Z,10.98
2023-05-13T00:02:52.768Z,10.95
2023-05-13T00:03:52.740Z,10.93
2023-05-13T00:04:53.754Z,10.92
2023-05-13T00:05:52.704Z,10.91
2023-05-13T00:06:52.739Z,10.91
2023-05-13T00:07:52.627Z,10.91
2023-05-13T00:08:52.630Z,10.93
2023-05-13T00:09:52.566Z,10.94
2023-05-13T00:10:52.671Z,10.96
2023-05-13T00:11:52.553Z,10.97
2023-05-13T00:12:52.590Z,10.97
2023-05-13T00:13:52.516Z,10.99
2023-05-13T00:14:52.585Z,11.01
2023-05-13T00:15:52.498Z,11.01
2023-05-13T00:16:52.740Z,11.01
2023-05-13T00:17:52.518Z,10.98
2023-05-13T00:18:52.534Z,10.98
2023-05-13T00:19:52.444Z,10.99
2023-05-13T00:20:52.521Z,10.97
2023-05-13T00:21:52.401Z,10.98
2023-05-13T00:22:52.425Z,10.98
2023-05-13T00:23:52.440Z,10.95
2023-05-13T00:24:52.460Z,10.96
2023-05-13T00:25:52.357Z,10.97
2023-05-13T00:26:52.448Z,10.97
2023-05-13T00:27:52.322Z,10.96
2023-05-13T00:28:52.360Z,10.96
2023-05-13T00:29:52.324Z,10.96
2023-05-13T00:30:52.391Z,10.93
2023-05-13T00:31:52.308Z,10.91
2023-05-13T00:32:52.343Z,10.88
2023-05-13T00:33:52.251Z,10.86
2023-05-13T00:34:52.308Z,10.85
2023-05-13T00:35:52.244Z,10.84
2023-05-13T00:36:52.317Z,10.80
2023-05-13T00:37:52.210Z,10.78
2023-05-13T00:38:52.240Z,10.77
2023-05-13T00:39:52.171Z,10.77
2023-05-13T00:40:52.242Z,10.79
2023-05-13T00:41:52.152Z,10.81
2023-05-13T00:42:52.171Z,10.82
2023-05-13T00:43:52.135Z,10.85
2023-05-13T00:44:52.183Z,10.84
2023-05-13T00:45:52.109Z,10.85
2023-05-13T00:46:54.199Z,10.86
2023-05-13T00:47:52.134Z,10.85
2023-05-13T00:48:52.103Z,10.86
2023-05-13T00:49:52.030Z,10.85
2023-05-13T00:50:52.125Z,10.83
2023-05-13T00:51:52.013Z,10.84
2023-05-13T00:52:52.032Z,10.84
2023-05-13T00:53:52.018Z,10.84
2023-05-13T00:54:52.041Z,10.86
2023-05-13T00:55:51.957Z,10.88
2023-05-13T00:56:52.053Z,10.91
2023-05-13T00:57:51.923Z,10.93
2023-05-13T00:58:51.984Z,10.94
2023-05-13T00:59:51.939Z,10.94
2023-05-13T01:00:52.024Z,10.93
2023-05-13T01:01:51.899Z,10.93
2023-05-13T01:02:51.930Z,10.94
2023-05-13T01:03:51.894Z,10.94
2023-05-13T01:04:51.914Z,10.94
2023-05-13T01:05:51.843Z,10.93
2023-05-13T01:07:12.915Z,10.93
2023-05-13T01:07:51.793Z,10.95
2023-05-13T01:08:51.838Z,10.96
2023-05-13T01:09:51.772Z,10.97
2023-05-13T01:10:51.874Z,10.97
2023-05-13T01:11:51.777Z,10.95
2023-05-13T01:12:51.762Z,10.94
2023-05-13T01:13:51.751Z,10.96
2023-05-13T01:14:52.794Z,10.98
2023-05-13T01:15:51.686Z,11.01
2023-05-13T01:16:51.777Z,11.04
2023-05-13T01:17:51.714Z,11.07
2023-05-13T01:18:51.743Z,11.08
2023-05-13T01:19:51.650Z,11.06
2023-05-13T01:20:52.646Z,11.05
2023-05-13T01:21:51.617Z,11.03
2023-05-13T01:22:51.635Z,11.02
2023-05-13T01:23:51.612Z,11.01
2023-05-13T01:24:51.640Z,11.01
2023-05-13T01:25:51.555Z,11.00
2023-05-13T01:26:51.562Z,10.97
2023-05-13T01:27:51.552Z,10.94
2023-05-13T01:28:51.589Z,10.92
2023-05-13T01:29:51.518Z,10.90
2023-05-13T01:30:51.592Z,10.88
2023-05-13T01:31:51.469Z,10.87
2023-05-13T01:32:51.560Z,10.87
2023-05-13T01:33:51.445Z,10.90
2023-05-13T01:34:51.512Z,10.92
2023-05-13T01:35:51.439Z,10.93
2023-05-13T01:36:51.443Z,10.92
2023-05-13T01:37:51.408Z,10.90
2023-05-13T01:38:51.442Z,10.91
2023-05-13T01:39:51.368Z,10.91
2023-05-13T01:40:51.448Z,10.90
2023-05-13T01:41:51.371Z,10.91
2023-05-13T01:42:51.367Z,10.89
2023-05-13T01:43:51.324Z,10.87
2023-05-13T01:44:51.390Z,10.87
2023-05-13T01:45:51.326Z,10.85
2023-05-13T01:46:51.343Z,10.84
2023-05-13T01:47:51.321Z,10.83
2023-05-13T01:48:51.310Z,10.82
2023-05-13T01:49:51.230Z,10.80
2023-05-13T01:50:51.397Z,10.80
2023-05-13T01:51:51.255Z,10.80
2023-05-13T01:52:51.233Z,10.80
2023-05-13T01:53:51.195Z,10.82
2023-05-13T01:54:51.251Z,10.83
2023-05-13T01:55:51.159Z,10.83
2023-05-13T01:56:51.168Z,10.83
2023-05-13T01:57:51.153Z,10.84
2023-05-13T01:58:51.181Z,10.85
2023-05-13T01:59:51.182Z,10.85
2023-05-13T02:00:51.197Z,10.83
2023-05-13T02:01:51.138Z,10.84
2023-05-13T02:02:51.206Z,10.84
2023-05-13T02:03:51.132Z,10.86
2023-05-13T02:04:51.109Z,10.86
2023-05-13T02:05:51.065Z,10.87
2023-05-13T02:06:51.025Z,10.86
2023-05-13T02:07:50.993Z,10.85
2023-05-13T02:08:51.038Z,10.85
2023-05-13T02:09:50.967Z,10.84
2023-05-13T02:10:51.051Z,10.84
2023-05-13T02:11:50.970Z,10.85
2023-05-13T02:12:51.000Z,10.84
2023-05-13T02:13:50.919Z,10.84
2023-05-13T02:14:50.988Z,10.82
2023-05-13T02:15:50.898Z,10.81
2023-05-13T02:16:51.019Z,10.80
2023-05-13T02:17:50.916Z,10.81
2023-05-13T02:18:50.945Z,10.81
2023-05-13T02:19:50.832Z,10.81
2023-05-13T02:21:12.955Z,10.82
2023-05-13T02:21:50.820Z,10.82
2023-05-13T02:22:50.845Z,10.81
2023-05-13T02:23:50.824Z,10.80
2023-05-13T02:24:50.849Z,10.80
2023-05-13T02:25:50.760Z,10.80
2023-05-13T02:26:50.769Z,10.79
2023-05-13T02:27:50.730Z,10.79
2023-05-13T02:28:50.798Z,10.80
2023-05-13T02:29:50.728Z,10.81
2023-05-13T02:30:50.830Z,10.83
2023-05-13T02:31:50.685Z,10.83
2023-05-13T02:32:50.735Z,10.84
2023-05-13T02:33:50.665Z,10.85
2023-05-13T02:34:50.725Z,10.86
2023-05-13T02:35:50.652Z,10.87
2023-05-13T02:36:50.645Z,10.88
2023-05-13T02:37:50.627Z,10.88
2023-05-13T02:38:50.660Z,10.88
2023-05-13T02:39:50.576Z,10.88
2023-05-13T02:40:50.745Z,10.86
2023-05-13T02:41:50.603Z,10.86
2023-05-13T02:42:50.610Z,10.84
2023-05-13T02:43:50.534Z,10.82
2023-05-13T02:44:50.594Z,10.79
2023-05-13T02:45:50.553Z,10.78
2023-05-13T02:46:50.509Z,10.79
2023-05-13T02:47:50.673Z,10.79
2023-05-13T02:48:50.539Z,10.81
2023-05-13T02:49:50.462Z,10.82
2023-05-13T02:50:50.530Z,10.82
2023-05-13T02:51:50.422Z,10.82
2023-05-13T02:52:50.439Z,10.83
2023-05-13T02:53:50.424Z,10.84
2023-05-13T02:54:50.502Z,10.84
2023-05-13T02:55:50.367Z,10.83
2023-05-13T02:56:50.473Z,10.83
2023-05-13T02:57:50.351Z,10.82
2023-05-13T02:58:50.379Z,10.83
2023-05-13T02:59:50.336Z,10.84
2023-05-13T03:00:50.400Z,10.85
2023-05-13T03:01:50.550Z,10.86
2023-05-13T03:02:50.387Z,10.87
2023-05-13T03:03:50.255Z,10.87
2023-05-13T03:04:50.368Z,10.86
2023-05-13T03:05:50.250Z,10.85
2023-05-13T03:06:50.246Z,10.84
2023-05-13T03:07:50.264Z,10.84
2023-05-13T03:08:50.261Z,10.84
2023-05-13T03:09:50.233Z,10.83
2023-05-13T03:10:50.269Z,10.83
2023-05-13T03:11:50.176Z,10.83
2023-05-13T03:12:50.181Z,10.83
2023-05-13T03:13:50.140Z,10.83
2023-05-13T03:14:50.199Z,10.84
2023-05-13T03:15:50.152Z,10.85
2023-05-13T03:16:50.121Z,10.86
2023-05-13T03:17:50.164Z,10.89
2023-05-13T03:18:50.205Z,10.89
2023-05-13T03:19:50.058Z,10.89
2023-05-13T03:20:50.143Z,10.89
2023-05-13T03:21:50.025Z,10.89
2023-05-13T03:22:50.050Z,10.89
2023-05-13T03:23:50.028Z,10.88
2023-05-13T03:24:50.078Z,10.87
2023-05-13T03:25:49.994Z,10.87
2023-05-13T03:26:49.986Z,10.87
2023-05-13T03:27:49.950Z,10.88
2023-05-13T03:28:49.994Z,10.88
2023-05-13T03:29:49.940Z,10.90
2023-05-13T03:30:50.002Z,10.91
2023-05-13T03:31:50.218Z,10.92
2023-05-13T03:32:50.164Z,10.94
2023-05-13T03:33:49.975Z,10.93
2023-05-13T03:34:52.553Z,10.95
2023-05-13T03:35:50.009Z,10.98
2023-05-13T03:36:49.841Z,10.98
2023-05-13T03:37:49.850Z,10.98
2023-05-13T03:38:49.894Z,10.97
2023-05-13T03:39:49.805Z,10.97
2023-05-13T03:40:49.871Z,10.97
2023-05-13T03:41:49.778Z,10.99
2023-05-13T03:42:49.778Z,10.99
2023-05-13T03:43:49.749Z,10.98
2023-05-13T03:44:49.810Z,10.98
2023-05-13T03:45:49.708Z,10.96
2023-05-13T03:46:50.754Z,10.97
2023-05-13T03:47:49.742Z,10.96
2023-05-13T03:48:49.758Z,10.96
2023-05-13T03:49:49.664Z,10.96
2023-05-13T03:50:49.732Z,10.94
2023-05-13T03:51:49.635Z,10.94
2023-05-13T03:52:49.863Z,10.94
2023-05-13T03:53:49.625Z,10.96
2023-05-13T03:54:49.679Z,11.00
2023-05-13T03:55:49.574Z,11.02
2023-05-13T03:56:49.611Z,11.03
2023-05-13T03:57:49.574Z,11.03
2023-05-13T03:58:49.625Z,11.06
2023-05-13T03:59:49.533Z,11.08
2023-05-13T04:00:49.613Z,11.09
2023-05-13T04:01:49.518Z,11.10
2023-05-13T04:02:49.711Z,11.09
2023-05-13T04:03:49.508Z,11.08
2023-05-13T04:04:49.586Z,11.07
2023-05-13T04:05:49.488Z,11.06
2023-05-13T04:06:49.553Z,11.06
2023-05-13T04:07:49.461Z,11.04
2023-05-13T04:08:49.485Z,11.04
2023-05-13T04:09:49.389Z,11.04
2023-05-13T04:10:49.488Z,11.03
2023-05-13T04:11:49.387Z,11.02
2023-05-13T04:12:49.396Z,11.00
2023-05-13T04:13:49.348Z,10.98
2023-05-13T04:14:49.404Z,10.97
2023-05-13T04:15:49.342Z,10.97
2023-05-13T04:16:49.437Z,10.97
2023-05-13T04:17:49.328Z,10.96
2023-05-13T04:18:49.390Z,10.96
2023-05-13T04:19:49.277Z,10.96
2023-05-13T04:20:49.347Z,10.98
2023-05-13T04:21:49.242Z,11.02
2023-05-13T04:22:49.260Z,11.03
2023-05-13T04:23:49.272Z,11.04
2023-05-13T04:24:49.273Z,11.03
2023-05-13T04:25:49.187Z,11.00
2023-05-13T04:26:49.329Z,11.00
2023-05-13T04:27:49.198Z,11.01
2023-05-13T04:28:49.206Z,11.01
2023-05-13T04:29:49.165Z,11.02
2023-05-13T04:30:49.221Z,11.03
2023-05-13T04:31:49.185Z,11.05
2023-05-13T04:32:49.207Z,11.05
2023-05-13T04:33:49.086Z,11.05
2023-05-13T04:34:49.136Z,11.06
2023-05-13T04:35:49.101Z,11.07
2023-05-13T04:36:49.184Z,11.08
2023-05-13T04:37:49.033Z,11.07
2023-05-13T04:38:50.092Z,11.08
2023-05-13T04:39:49.000Z,11.09
2023-05-13T04:40:51.542Z,11.09
2023-05-13T04:41:49.082Z,11.10
2023-05-13T04:42:50.042Z,11.10
2023-05-13T04:43:49.015Z,11.11
2023-05-13T04:44:49.036Z,11.12
2023-05-13T04:45:48.930Z,11.14
2023-05-13T04:46:49.138Z,11.15
2023-05-13T04:47:48.942Z,11.15
2023-05-13T04:48:49.011Z,11.15
2023-05-13T04:49:48.948Z,11.16
2023-05-13T04:50:48.962Z,11.16
2023-05-13T04:51:48.920Z,11.15
2023-05-13T04:52:48.871Z,11.16
2023-05-13T04:53:48.880Z,11.18
2023-05-13T04:54:48.875Z,11.21
2023-05-13T04:55:48.792Z,11.23
2023-05-13T04:56:48.924Z,11.25
2023-05-13T04:57:48.763Z,11.24
2023-05-13T04:58:49.840Z,11.24
2023-05-13T04:59:48.772Z,11.26
2023-05-13T05:00:48.845Z,11.28
2023-05-13T05:01:48.769Z,11.31
2023-05-13T05:02:48.769Z,11.34
2023-05-13T05:03:48.727Z,11.35
2023-05-13T05:04:48.751Z,11.36
2023-05-13T05:05:48.693Z,11.38
2023-05-13T05:06:48.772Z,11.40
2023-05-13T05:07:48.621Z,11.41
2023-05-13T05:08:48.680Z,11.44
2023-05-13T05:09:48.615Z,11.49
2023-05-13T05:10:48.687Z,11.52
2023-05-13T05:11:48.626Z,11.54
2023-05-13T05:12:48.664Z,11.56
2023-05-13T05:13:48.582Z,11.58
2023-05-13T05:14:48.637Z,11.61
2023-05-13T05:15:48.540Z,11.66
2023-05-13T05:16:48.705Z,11.69
2023-05-13T05:17:48.623Z,11.71
2023-05-13T05:18:48.658Z,11.72
2023-05-13T05:19:48.474Z,11.74
2023-05-13T05:20:48.577Z,11.75
2023-05-13T05:21:48.458Z,11.76
2023-05-13T05:22:48.470Z,11.79
2023-05-13T05:23:48.586Z,11.84
2023-05-13T05:24:48.545Z,11.88
2023-05-13T05:25:49.815Z,11.90
2023-05-13T05:26:48.479Z,11.92
2023-05-13T05:27:48.415Z,11.93
2023-05-13T05:28:48.364Z,11.97
2023-05-13T05:29:48.473Z,12.02
2023-05-13T05:30:48.338Z,12.05
2023-05-13T05:31:48.526Z,12.09
2023-05-13T05:32:48.364Z,12.09
2023-05-13T05:33:48.366Z,12.09
2023-05-13T05:34:48.318Z,12.10
2023-05-13T05:35:51.610Z,12.09
2023-05-13T05:36:48.352Z,12.09
2023-05-13T05:37:48.276Z,12.10
2023-05-13T05:38:48.244Z,12.12
2023-05-13T05:39:48.301Z,12.10
2023-05-13T05:40:48.223Z,12.11
2023-05-13T05:41:48.194Z,12.10
2023-05-13T05:42:48.184Z,12.10
2023-05-13T05:43:48.239Z,12.11
2023-05-13T05:44:48.411Z,12.12
2023-05-13T05:45:48.240Z,12.09
2023-05-13T05:46:48.167Z,12.09
2023-05-13T05:47:48.191Z,12.11
2023-05-13T05:48:48.111Z,12.14
2023-05-13T05:49:48.205Z,12.17
2023-05-13T05:50:48.072Z,12.17
2023-05-13T05:51:48.295Z,12.15
2023-05-13T05:52:48.074Z,12.12
2023-05-13T05:53:48.085Z,12.11
2023-05-13T05:54:48.019Z,12.10
2023-05-13T05:55:48.108Z,12.10
2023-05-13T05:56:48.024Z,12.09
2023-05-13T05:57:48.022Z,12.08
2023-05-13T05:58:47.983Z,12.06
2023-05-13T05:59:48.028Z,12.03
2023-05-13T06:00:47.943Z,12.01
2023-05-13T06:01:48.035Z,11.99
2023-05-13T06:02:48.013Z,12.01
2023-05-13T06:03:48.136Z,12.02
2023-05-13T06:04:47.975Z,12.03
2023-05-13T06:05:48.053Z,12.04
2023-05-13T06:06:48.003Z,12.02
2023-05-13T06:07:48.008Z,12.00
2023-05-13T06:08:47.916Z,11.97
2023-05-13T06:09:48.024Z,11.92
2023-05-13T06:10:48.009Z,11.87
2023-05-13T06:11:47.910Z,11.85
2023-05-13T06:12:47.869Z,11.84
2023-05-13T06:13:47.913Z,11.85
2023-05-13T06:14:47.794Z,11.86
2023-05-13T06:15:47.909Z,11.89
2023-05-13T06:16:47.844Z,11.92
2023-05-13T06:17:47.939Z,11.93
2023-05-13T06:18:47.806Z,11.95
2023-05-13T06:19:47.753Z,11.97
2023-05-13T06:20:47.692Z,11.99
2023-05-13T06:21:47.793Z,12.01
2023-05-13T06:22:47.831Z,12.03
2023-05-13T06:23:47.685Z,12.05
2023-05-13T06:24:47.770Z,12.06
2023-05-13T06:25:47.839Z,12.05
2023-05-13T06:26:47.614Z,12.05
2023-05-13T06:27:47.617Z,12.06
2023-05-13T06:28:47.606Z,12.03
2023-05-13T06:29:47.625Z,11.99
2023-05-13T06:30:47.612Z,11.98
2023-05-13T06:31:47.811Z,11.99
2023-05-13T06:32:53.982Z,12.00
2023-05-13T06:33:48.521Z,12.00
2023-05-13T06:34:47.580Z,12.00
2023-05-13T06:35:47.525Z,12.00
2023-05-13T06:36:47.493Z,11.99
2023-05-13T06:37:47.444Z,12.00
2023-05-13T06:38:47.495Z,12.01
2023-05-13T06:39:47.484Z,12.01
2023-05-13T06:40:47.500Z,12.03
2023-05-13T06:41:47.584Z,12.06
2023-05-13T06:42:47.423Z,12.06
2023-05-13T06:43:47.384Z,12.07
2023-05-13T06:44:47.466Z,12.08
2023-05-13T06:45:47.371Z,12.09
2023-05-13T06:46:47.388Z,12.09
2023-05-13T06:47:47.345Z,12.11
2023-05-13T06:48:47.360Z,12.11
2023-05-13T06:49:47.313Z,12.13
2023-05-13T06:50:47.480Z,12.12
2023-05-13T06:51:47.308Z,12.11
2023-05-13T06:52:47.397Z,12.10
2023-05-13T06:53:47.272Z,12.10
2023-05-13T06:54:47.296Z,12.11
2023-05-13T06:55:47.229Z,12.11
2023-05-13T06:56:47.241Z,12.12
2023-05-13T06:57:47.468Z,12.14
2023-05-13T06:58:47.236Z,12.15
2023-05-13T06:59:47.169Z,12.17
2023-05-13T07:00:47.301Z,12.21
2023-05-13T07:01:47.165Z,12.25
2023-05-13T07:02:47.275Z,12.30
2023-05-13T07:03:47.170Z,12.34
2023-05-13T07:04:47.195Z,12.37
2023-05-13T07:05:47.102Z,12.41
2023-05-13T07:06:47.181Z,12.45
2023-05-13T07:07:47.068Z,12.48
2023-05-13T07:08:47.152Z,12.52
2023-05-13T07:09:47.105Z,12.54
2023-05-13T07:10:47.113Z,12.54
2023-05-13T07:11:47.019Z,12.54
2023-05-13T07:12:47.066Z,12.53
2023-05-13T07:13:46.972Z,12.51
2023-05-13T07:14:47.046Z,12.48
2023-05-13T07:15:47.019Z,12.46
2023-05-13T07:16:46.996Z,12.43
2023-05-13T07:17:46.994Z,12.40
2023-05-13T07:18:47.053Z,12.34
2023-05-13T07:19:46.883Z,12.30
2023-05-13T07:20:47.891Z,12.27
2023-05-13T07:21:46.894Z,12.26
2023-05-13T07:22:46.977Z,12.26
2023-05-13T07:23:46.831Z,12.30
2023-05-13T07:24:46.911Z,12.36
2023-05-13T07:25:46.811Z,12.38
2023-05-13T07:26:46.801Z,12.39
2023-05-13T07:27:46.802Z,12.40
2023-05-13T07:28:46.815Z,12.38
2023-05-13T07:29:46.746Z,12.36
2023-05-13T07:30:46.852Z,12.34
2023-05-13T07:31:46.722Z,12.32
2023-05-13T07:32:46.773Z,12.31
2023-05-13T07:33:49.825Z,12.30
2023-05-13T07:34:48.933Z,12.30
2023-05-13T07:35:46.690Z,12.29
2023-05-13T07:36:46.691Z,12.30
2023-05-13T07:37:46.643Z,12.29
2023-05-13T07:38:46.757Z,12.28
2023-05-13T07:39:46.637Z,12.27
2023-05-13T07:40:46.738Z,12.24
2023-05-13T07:41:46.584Z,12.23
2023-05-13T07:42:46.617Z,12.25
2023-05-13T07:43:46.580Z,12.26
2023-05-13T07:44:46.644Z,12.24
2023-05-13T07:45:46.561Z,12.22
2023-05-13T07:46:46.582Z,12.19
2023-05-13T07:47:46.569Z,12.17
2023-05-13T07:48:46.559Z,12.14
2023-05-13T07:49:46.517Z,12.12
2023-05-13T07:50:46.576Z,12.14
2023-05-13T07:51:46.514Z,12.19
2023-05-13T07:52:46.496Z,12.23
2023-05-13T07:53:46.458Z,12.24
2023-05-13T07:54:46.514Z,12.22
2023-05-13T07:55:46.419Z,12.19
2023-05-13T07:56:46.424Z,12.16
2023-05-13T07:57:46.456Z,12.14
2023-05-13T07:58:46.428Z,12.14
2023-05-13T07:59:46.360Z,12.14
2023-05-13T08:00:47.047Z,12.13
2023-05-13T08:01:46.338Z,12.09
2023-05-13T08:02:46.424Z,12.06
2023-05-13T08:03:46.539Z,12.03
2023-05-13T08:04:46.404Z,12.02
2023-05-13T08:05:46.280Z,12.00
2023-05-13T08:06:46.308Z,11.99
2023-05-13T08:07:46.254Z,12.00
2023-05-13T08:08:46.299Z,12.00
2023-05-13T08:09:46.241Z,11.99
2023-05-13T08:10:46.323Z,11.98
2023-05-13T08:11:46.187Z,11.96
2023-05-13T08:12:46.228Z,11.96
2023-05-13T08:13:46.172Z,11.99
2023-05-13T08:14:48.260Z,12.01
2023-05-13T08:15:46.154Z,12.03
2023-05-13T08:16:46.291Z,12.05
2023-05-13T08:17:46.187Z,12.10
2023-05-13T08:18:46.211Z,12.15
2023-05-13T08:19:46.094Z,12.18
2023-05-13T08:20:46.178Z,12.19
2023-05-13T08:21:46.092Z,12.22
2023-05-13T08:22:46.097Z,12.23
2023-05-13T08:23:46.323Z,12.26
2023-05-13T08:24:46.111Z,12.34
2023-05-13T08:25:46.020Z,12.46
2023-05-13T08:26:46.105Z,12.58
2023-05-13T08:27:46.019Z,12.69
2023-05-13T08:28:46.087Z,12.83
2023-05-13T08:29:45.955Z,12.95
2023-05-13T08:30:46.058Z,13.03
2023-05-13T08:31:45.983Z,13.10
2023-05-13T08:33:07.111Z,13.15
2023-05-13T08:33:45.900Z,13.17
2023-05-13T08:34:45.981Z,13.12
2023-05-13T08:35:45.876Z,13.11
2023-05-13T08:36:45.888Z,13.13
2023-05-13T08:37:45.863Z,13.14
2023-05-13T08:38:45.970Z,13.11
2023-05-13T08:39:45.845Z,13.09
2023-05-13T08:40:45.939Z,13.09
2023-05-13T08:41:45.825Z,13.10
2023-05-13T08:42:45.845Z,13.12
2023-05-13T08:43:45.772Z,13.17
2023-05-13T08:44:45.787Z,13.23
2023-05-13T08:45:45.760Z,13.26
2023-05-13T08:46:45.752Z,13.30
2023-05-13T08:47:45.786Z,13.29
2023-05-13T08:48:45.808Z,13.26
2023-05-13T08:49:45.687Z,13.23
2023-05-13T08:50:45.741Z,13.23
2023-05-13T08:51:45.659Z,13.22
2023-05-13T08:52:45.707Z,13.23
2023-05-13T08:53:45.648Z,13.23
2023-05-13T08:54:45.714Z,13.23
2023-05-13T08:55:45.630Z,13.22
2023-05-13T08:56:45.693Z,13.20
2023-05-13T08:57:45.597Z,13.18
2023-05-13T08:58:45.636Z,13.17
2023-05-13T08:59:45.551Z,13.13
2023-05-13T09:00:45.670Z,13.09
2023-05-13T09:01:45.594Z,13.03
2023-05-13T09:02:45.655Z,12.97
2023-05-13T09:03:45.502Z,12.94
2023-05-13T09:04:45.597Z,12.92
2023-05-13T09:05:45.502Z,12.91
2023-05-13T09:06:45.503Z,12.91
2023-05-13T09:07:45.469Z,12.93
2023-05-13T09:08:45.577Z,12.92
2023-05-13T09:09:45.429Z,12.89
2023-05-13T09:10:45.522Z,12.88
2023-05-13T09:11:45.411Z,12.88
2023-05-13T09:12:45.478Z,12.86
2023-05-13T09:13:45.370Z,12.85
2023-05-13T09:14:45.438Z,12.83
2023-05-13T09:15:45.390Z,12.82
2023-05-13T09:16:45.361Z,12.81
2023-05-13T09:17:45.439Z,12.80
2023-05-13T09:18:46.449Z,12.80
2023-05-13T09:19:45.460Z,12.81
2023-05-13T09:20:45.361Z,12.81
2023-05-13T09:21:45.274Z,12.80
2023-05-13T09:22:45.314Z,12.81
2023-05-13T09:23:45.246Z,12.80
2023-05-13T09:24:45.312Z,12.79
2023-05-13T09:25:45.209Z,12.77
2023-05-13T09:26:45.297Z,12.75
2023-05-13T09:27:45.204Z,12.74
2023-05-13T09:28:46.284Z,12.72
2023-05-13T09:29:45.158Z,12.70
2023-05-13T09:30:46.892Z,12.69
2023-05-13T09:31:45.231Z,12.69
2023-05-13T09:32:45.281Z,12.70
2023-05-13T09:33:45.097Z,12.68
2023-05-13T09:34:45.188Z,12.68
2023-05-13T09:35:45.104Z,12.68
2023-05-13T09:36:45.088Z,12.71
2023-05-13T09:37:45.050Z,12.77
2023-05-13T09:38:45.160Z,12.84
2023-05-13T09:39:45.024Z,12.90
2023-05-13T09:40:45.121Z,12.96
2023-05-13T09:41:45.006Z,13.04
2023-05-13T09:42:45.064Z,13.15
2023-05-13T09:43:44.964Z,13.26
2023-05-13T09:44:45.120Z,13.37
2023-05-13T09:45:44.950Z,13.47
2023-05-13T09:46:46.045Z,13.56
2023-05-13T09:47:44.987Z,13.66
2023-05-13T09:48:44.983Z,13.73
2023-05-13T09:49:44.883Z,13.82
2023-05-13T09:50:44.947Z,13.87
2023-05-13T09:51:44.880Z,13.90
2023-05-13T09:52:44.908Z,13.92
2023-05-13T09:53:59.614Z,13.96
2023-05-13T09:54:44.957Z,14.00
2023-05-13T09:55:44.812Z,14.03
2023-05-13T09:56:45.909Z,14.03
2023-05-13T09:57:44.814Z,14.03
2023-05-13T09:58:44.861Z,14.03
2023-05-13T09:59:44.767Z,14.01
2023-05-13T10:00:45.081Z,14.01
2023-05-13T10:01:44.874Z,14.02
2023-05-13T10:02:44.850Z,14.03
2023-05-13T10:03:44.782Z,14.01
2023-05-13T10:04:44.806Z,14.00
2023-05-13T10:05:44.696Z,14.02
2023-05-13T10:06:44.717Z,14.05
2023-05-13T10:07:44.661Z,14.03
2023-05-13T10:08:44.796Z,14.01
2023-05-13T10:09:44.626Z,13.98
2023-05-13T10:10:46.023Z,13.98
2023-05-13T10:11:44.601Z,14.00
2023-05-13T10:12:44.661Z,14.01
2023-05-13T10:13:44.585Z,14.02
2023-05-13T10:14:44.621Z,14.00
2023-05-13T10:15:44.540Z,14.00
2023-05-13T10:16:44.595Z,13.97
2023-05-13T10:17:44.541Z,13.94
2023-05-13T10:18:44.597Z,13.91
2023-05-13T10:19:44.498Z,13.91
2023-05-13T10:20:44.563Z,13.90
2023-05-13T10:21:44.481Z,13.86
2023-05-13T10:22:44.504Z,13.82
2023-05-13T10:23:44.442Z,13.77
2023-05-13T10:24:44.536Z,13.71
2023-05-13T10:25:44.429Z,13.69
2023-05-13T10:26:44.493Z,13.68
2023-05-13T10:27:44.389Z,13.71
2023-05-13T10:28:44.451Z,13.78
2023-05-13T10:29:44.361Z,13.84
2023-05-13T10:30:44.372Z,13.92
2023-05-13T10:31:44.372Z,14.02
2023-05-13T10:32:47.693Z,14.09
2023-05-13T10:33:44.305Z,14.16
2023-05-13T10:34:44.403Z,14.25
2023-05-13T10:35:44.273Z,14.30
2023-05-13T10:36:44.317Z,14.34
2023-05-13T10:37:44.265Z,14.35
2023-05-13T10:38:44.365Z,14.36
2023-05-13T10:39:44.229Z,14.34
2023-05-13T10:40:44.232Z,14.33
2023-05-13T10:41:44.209Z,14.31
2023-05-13T10:42:44.248Z,14.33
2023-05-13T10:43:44.163Z,14.32
2023-05-13T10:44:44.242Z,14.31
2023-05-13T10:45:44.136Z,14.32
2023-05-13T10:46:44.246Z,14.34
2023-05-13T10:47:44.168Z,14.36
2023-05-13T10:48:44.257Z,14.37
2023-05-13T10:49:44.085Z,14.35
2023-05-13T10:50:44.167Z,14.35
2023-05-13T10:51:44.081Z,14.37
2023-05-13T10:52:44.140Z,14.41
2023-05-13T10:53:44.029Z,14.47
2023-05-13T10:54:44.143Z,14.52
2023-05-13T10:55:44.009Z,14.53
2023-05-13T10:56:44.181Z,14.54
2023-05-13T10:57:43.989Z,14.63
2023-05-13T10:58:44.116Z,14.75
2023-05-13T10:59:43.953Z,14.87
2023-05-13T11:00:45.648Z,14.97
2023-05-13T11:01:44.317Z,15.01
2023-05-13T11:02:44.150Z,15.05
2023-05-13T11:03:43.997Z,15.05
2023-05-13T11:04:44.029Z,15.06
2023-05-13T11:05:43.880Z,15.10
2023-05-13T11:06:43.901Z,15.16
2023-05-13T11:07:43.842Z,15.16
2023-05-13T11:08:43.877Z,15.16
2023-05-13T11:09:43.808Z,15.19
2023-05-13T11:10:43.833Z,15.24
2023-05-13T11:11:43.791Z,15.20
2023-05-13T11:12:43.852Z,15.14
2023-05-13T11:13:43.764Z,15.08
2023-05-13T11:14:43.814Z,15.08
2023-05-13T11:15:43.788Z,15.11
2023-05-13T11:16:43.819Z,15.13
2023-05-13T11:17:43.792Z,15.11
2023-05-13T11:18:43.830Z,15.10
2023-05-13T11:19:43.692Z,15.14
2023-05-13T11:20:52.309Z,15.25
2023-05-13T11:21:44.787Z,15.32
2023-05-13T11:22:43.746Z,15.34
2023-05-13T11:23:43.634Z,15.36
2023-05-13T11:24:43.732Z,15.38
2023-05-13T11:25:43.609Z,15.38
2023-05-13T11:26:43.708Z,15.37
2023-05-13T11:27:43.598Z,15.25
2023-05-13T11:28:43.667Z,15.15
2023-05-13T11:29:43.564Z,15.01
2023-05-13T11:30:43.572Z,14.84
2023-05-13T11:31:43.760Z,14.69
2023-05-13T11:32:43.664Z,14.55
2023-05-13T11:33:43.513Z,14.40
2023-05-13T11:34:43.496Z,14.28
2023-05-13T11:35:43.478Z,14.21
2023-05-13T11:36:44.545Z,14.16
2023-05-13T11:37:43.466Z,14.14
2023-05-13T11:38:43.478Z,14.12
2023-05-13T11:39:43.430Z,14.13
2023-05-13T11:40:43.435Z,14.22
2023-05-13T11:41:43.402Z,14.29
2023-05-13T11:42:43.461Z,14.31
2023-05-13T11:43:43.371Z,14.36
2023-05-13T11:44:43.425Z,14.42
2023-05-13T11:45:43.418Z,14.43
2023-05-13T11:46:43.376Z,14.41
2023-05-13T11:47:43.331Z,14.38
2023-05-13T11:48:43.407Z,14.34
2023-05-13T11:49:43.314Z,14.31
2023-05-13T11:50:43.357Z,14.30
2023-05-13T11:51:43.290Z,14.28
2023-05-13T11:52:43.365Z,14.25
2023-05-13T11:53:43.236Z,14.23
2023-05-13T11:54:44.272Z,14.20
2023-05-13T11:55:43.212Z,14.16
2023-05-13T11:56:43.306Z,14.13
2023-05-13T11:57:43.242Z,14.11
2023-05-13T11:58:43.273Z,14.11
2023-05-13T11:59:48.139Z,14.12
2023-05-13T12:00:46.490Z,14.17
2023-05-13T12:01:43.190Z,14.21
2023-05-13T12:02:43.205Z,14.23
2023-05-13T12:03:43.202Z,14.27
2023-05-13T12:04:43.123Z,14.25
2023-05-13T12:05:44.560Z,14.28
2023-05-13T12:06:43.071Z,14.32
2023-05-13T12:07:43.124Z,14.34
2023-05-13T12:08:43.081Z,14.38
2023-05-13T12:09:43.140Z,14.39
2023-05-13T12:10:43.030Z,14.38
2023-05-13T12:11:43.056Z,14.37
2023-05-13T12:12:43.047Z,14.32
2023-05-13T12:13:43.073Z,14.27
2023-05-13T12:14:42.980Z,14.23
2023-05-13T12:15:43.027Z,14.25
2023-05-13T12:16:42.938Z,14.30
2023-05-13T12:17:43.081Z,14.31
2023-05-13T12:18:42.936Z,14.30
2023-05-13T12:19:42.914Z,14.32
2023-05-13T12:20:42.945Z,14.38
2023-05-13T12:21:42.968Z,14.45
2023-05-13T12:22:42.989Z,14.51
2023-05-13T12:23:42.938Z,14.60
2023-05-13T12:24:42.823Z,14.68
2023-05-13T12:25:42.903Z,14.76
2023-05-13T12:26:42.837Z,14.83
2023-05-13T12:27:42.861Z,14.85
2023-05-13T12:28:42.779Z,14.84
2023-05-13T12:29:42.879Z,14.88
2023-05-13T12:30:42.763Z,14.94
2023-05-13T12:31:42.823Z,14.97
2023-05-13T12:32:44.067Z,14.91
2023-05-13T12:33:42.829Z,14.83
2023-05-13T12:34:42.698Z,14.85
2023-05-13T12:35:43.499Z,14.98
2023-05-13T12:36:42.749Z,15.19
2023-05-13T12:37:42.738Z,15.37
2023-05-13T12:38:42.668Z,15.44
2023-05-13T12:39:42.761Z,15.45
2023-05-13T12:40:42.619Z,15.43
2023-05-13T12:41:42.658Z,15.43
2023-05-13T12:42:42.591Z,15.41
2023-05-13T12:43:42.677Z,15.40
2023-05-13T12:44:42.594Z,15.36
2023-05-13T12:45:44.754Z,15.35
2023-05-13T12:46:42.663Z,15.31
2023-05-13T12:47:42.613Z,15.23
2023-05-13T12:48:42.513Z,15.20
2023-05-13T12:49:42.628Z,15.15
2023-05-13T12:50:42.588Z,15.08
2023-05-13T12:51:42.530Z,14.99
2023-05-13T12:52:42.464Z,14.88